Portada
METAR-TAF:

METAR-TAF

Aeropuertos :

Kunming, China

Aeropuerto Internacional de Kunming-Changshui

latitud: 25-01N, longitud: 102-41E, altitud: 1892 m

Observación

El informe se hizo hace 32 minutos, a las 15:00 UTC
Viento 12 kt del sur-suroeste
Temperatura 8°C
Humedad 66%
Presión 1015 hPa
Visibilidad 10 km o más
sin nubes por debajo de 1500 m y sin presencia de cumulonimbus.

METAR: ZPPP 231500Z 21006MPS CAVOK 08/02 Q1015 NOSIG

Hora: 23:32 (15:32 UTC)

Pronóstico

El informe se hizo hace 8 horas y 31 minutos, a las 07:01 UTC
Pronóstico válido del 23 a las 12 UTC al 24 a las 12 UTC
Viento 12 kt del suroeste
Visibilidad 10 km o más
Escasas nubes a una altura de 2600 ft

TAF: ZPPP 230701Z 2312/2412 22006MPS 9999 FEW026 TX17/2408Z TN03/2323Z

Observaciones y pronósticos meteorológicos de más de 4000 aeropuertos (mensajes METAR y TAF).

Los puntos amarillos y rojos representan las estaciones disponibles.

Ponga el ratón en el punto deseado para ver el nombre de la estación.

Haga clic para ver las observaciones y los pronósticos meteorológicos.

Para cambiar el mapa : haga clic en los botones verdes con una cruz de color negro para hacer un zoom, en el botón verde con un guión para alejar o en las flechas verdes para mapas adyacentes.


METAR-TAF: